Time;durP1;ratioP1;P1;durP2;ratioP2;P2;SDS_P1;SDS_P2;PMS_P1;PMS_P2;Temp;Humidity;BMP_temperature;BMP_pressure;BME280_temperature;BME280_humidity;BME280_pressure;Samples;Min_cycle;Max_cycle;Signal;HPM_P1;HPM_P2
2022/06/13 00:08:35;;;;;;;5.80;2.70;;;20.80;64.90;;;;;;21081941;28;20213;-70
2022/06/13 00:18:37;;;;;;;4.03;2.10;;;20.70;64.10;;;;;;21081065;28;20328;-72
2022/06/13 00:28:39;;;;;;;4.60;2.00;;;20.70;64.20;;;;;;21080659;28;20230;-72
2022/06/13 00:38:41;;;;;;;4.90;1.90;;;20.70;63.60;;;;;;21079581;28;20274;-71
2022/06/13 00:48:43;;;;;;;5.63;2.07;;;20.70;63.00;;;;;;21061369;28;20221;-72
2022/06/13 00:58:51;;;;;;;3.30;1.57;;;20.60;62.00;;;;;;21078949;28;20287;-73
2022/06/13 01:08:53;;;;;;;3.03;1.50;;;20.70;60.90;;;;;;21077266;28;20206;-70
2022/06/13 01:19:09;;;;;;;4.80;1.60;;;20.70;59.50;;;;;;21077641;28;20319;-71
2022/06/13 01:29:32;;;;;;;10.63;2.00;;;20.50;59.10;;;;;;21077666;28;20704;-72
2022/06/13 01:40:02;;;;;;;3.30;1.80;;;20.30;59.40;;;;;;21077322;28;20246;-70
2022/06/13 01:50:40;;;;;;;6.93;1.90;;;20.20;59.60;;;;;;21076601;28;20217;-70
2022/06/13 02:00:48;;;;;;;5.43;2.00;;;20.00;60.50;;;;;;21008246;28;20235;-71
2022/06/13 02:11:05;;;;;;;2.40;1.70;;;19.90;61.00;;;;;;21075677;28;20609;-71
2022/06/13 02:21:12;;;;;;;3.83;2.03;;;19.90;60.70;;;;;;21085362;28;20290;-70
2022/06/13 02:31:20;;;;;;;4.50;2.00;;;19.90;60.60;;;;;;21073736;28;20241;-71
2022/06/13 02:41:26;;;;;;;3.50;1.90;;;19.80;60.90;;;;;;21089599;28;20235;-70
2022/06/13 02:51:46;;;;;;;2.97;1.87;;;19.60;61.00;;;;;;21088880;28;20208;-71
2022/06/13 03:01:50;;;;;;;7.03;2.13;;;19.40;61.00;;;;;;21087312;28;20232;-70
2022/06/13 03:12:09;;;;;;;4.40;2.00;;;19.20;61.70;;;;;;21087179;28;20308;-70
2022/06/13 03:22:18;;;;;;;7.87;2.50;;;19.20;61.90;;;;;;21085754;28;20278;-72
2022/06/13 03:32:25;;;;;;;5.07;2.10;;;18.90;62.20;;;;;;21084542;28;20627;-71
2022/06/13 03:42:43;;;;;;;4.87;2.30;;;18.90;62.30;;;;;;21084687;28;20262;-73
2022/06/13 03:52:49;;;;;;;8.73;2.40;;;18.90;62.90;;;;;;21083635;28;20625;-71
2022/06/13 04:02:53;;;;;;;7.17;2.53;;;18.80;62.80;;;;;;21082584;28;20239;-72
2022/06/13 04:12:55;;;;;;;6.07;2.73;;;18.80;63.50;;;;;;21082652;28;20204;-73
2022/06/13 04:23:16;;;;;;;7.77;2.20;;;18.80;64.00;;;;;;21081318;28;20242;-69
2022/06/13 04:33:34;;;;;;;7.33;2.73;;;18.90;64.20;;;;;;21079696;28;20592;-69
2022/06/13 04:43:43;;;;;;;5.87;2.50;;;18.80;64.30;;;;;;21078993;28;20322;-69
2022/06/13 04:53:52;;;;;;;13.93;2.90;;;18.70;64.60;;;;;;21078572;28;20269;-68
2022/06/13 05:03:57;;;;;;;11.50;2.90;;;18.60;65.10;;;;;;21075450;28;20289;-67
2022/06/13 05:14:07;;;;;;;5.73;3.13;;;18.30;64.70;;;;;;21059538;28;20234;-65
2022/06/13 05:24:29;;;;;;;6.80;3.20;;;18.10;66.00;;;;;;21075179;28;20239;-70
2022/06/13 05:34:35;;;;;;;5.27;2.50;;;18.20;66.50;;;;;;21059956;28;20667;-72
2022/06/13 05:44:37;;;;;;;8.67;2.93;;;18.40;66.80;;;;;;21053331;28;20689;-70
2022/06/13 05:54:39;;;;;;;10.80;5.03;;;18.60;66.50;;;;;;21036386;28;20205;-72
2022/06/13 06:04:40;;;;;;;18.50;3.07;;;18.50;65.60;;;;;;21090608;28;20696;-69
2022/06/13 06:14:43;;;;;;;8.80;3.00;;;18.60;65.50;;;;;;21087986;28;20208;-69
2022/06/13 06:24:44;;;;;;;7.57;4.00;;;18.90;65.60;;;;;;21070271;28;20256;-70
2022/06/13 06:34:46;;;;;;;5.90;2.90;;;19.10;65.00;;;;;;21068080;28;20206;-69
2022/06/13 06:44:48;;;;;;;12.93;3.80;;;19.30;64.60;;;;;;21068771;28;20668;-70
2022/06/13 07:05:11;;;;;;;8.50;3.67;;;19.70;64.30;;;;;;21084818;28;20233;-70
2022/06/13 07:15:14;;;;;;;9.20;4.20;;;20.10;64.20;;;;;;21084338;28;20214;-69
2022/06/13 07:25:22;;;;;;;12.80;2.90;;;20.40;63.80;;;;;;21083918;28;20250;-69
2022/06/13 07:35:25;;;;;;;7.53;3.40;;;20.60;62.20;;;;;;21082319;28;20266;-70
2022/06/13 07:45:31;;;;;;;8.43;2.57;;;20.90;61.70;;;;;;21079019;28;20234;-70
2022/06/13 07:55:50;;;;;;;7.13;2.90;;;21.10;60.40;;;;;;21080986;28;20206;-68
2022/06/13 08:05:52;;;;;;;9.13;2.50;;;21.10;58.50;;;;;;21078687;28;20234;-68
2022/06/13 08:15:54;;;;;;;8.60;2.00;;;21.20;57.20;;;;;;21079488;28;20264;-71
2022/06/13 08:25:56;;;;;;;9.47;4.53;;;21.20;56.00;;;;;;21079064;28;20242;-70
2022/06/13 08:35:58;;;;;;;7.17;2.70;;;21.00;55.80;;;;;;21077819;28;20199;-71
2022/06/13 08:46:15;;;;;;;7.00;2.13;;;21.20;55.50;;;;;;21077839;28;20256;-71
2022/06/13 08:56:20;;;;;;;4.87;2.50;;;21.20;54.80;;;;;;21074598;28;20213;-69
2022/06/13 09:06:32;;;;;;;4.37;1.87;;;21.30;53.40;;;;;;21074219;28;20230;-70
2022/06/13 09:16:35;;;;;;;8.33;2.03;;;21.60;53.20;;;;;;21075498;28;20214;-69
2022/06/13 09:26:53;;;;;;;4.20;1.47;;;21.40;51.60;;;;;;21077936;28;20242;-70
2022/06/13 09:37:11;;;;;;;5.33;1.70;;;21.50;47.60;;;;;;21091953;28;20220;-69
2022/06/13 09:47:37;;;;;;;5.00;1.63;;;21.70;47.50;;;;;;21091693;28;20234;-70
2022/06/13 09:58:08;;;;;;;13.63;3.60;;;22.00;47.00;;;;;;21091111;28;20232;-70
2022/06/13 10:08:24;;;;;;;3.90;1.90;;;22.10;47.70;;;;;;21066690;28;20210;-68
2022/06/13 10:19:10;;;;;;;4.50;2.40;;;21.80;47.60;;;;;;21090746;28;20701;-70
2022/06/13 10:29:26;;;;;;;2.47;1.57;;;21.80;47.20;;;;;;21089102;28;20226;-69
2022/06/13 10:39:29;;;;;;;7.93;2.10;;;22.20;46.80;;;;;;21087646;28;20234;-69
2022/06/13 10:49:42;;;;;;;5.50;2.30;;;22.00;45.20;;;;;;21085061;28;20228;-69
2022/06/13 10:59:44;;;;;;;8.47;2.53;;;22.20;45.70;;;;;;21085137;28;20603;-69
2022/06/13 11:09:54;;;;;;;13.23;2.40;;;22.40;45.40;;;;;;21086443;28;20611;-70
2022/06/13 11:30:32;;;;;;;9.97;2.80;;;22.40;45.00;;;;;;21083903;28;20782;-70
2022/06/13 11:40:34;;;;;;;6.97;2.87;;;22.40;45.50;;;;;;21083818;28;20637;-70
2022/06/13 11:50:36;;;;;;;10.23;3.77;;;22.60;46.40;;;;;;21081504;28;20263;-69
2022/06/13 12:00:49;;;;;;;9.10;2.20;;;22.90;45.80;;;;;;21081129;28;20630;-71
2022/06/13 12:10:53;;;;;;;7.27;1.70;;;23.00;44.80;;;;;;21083584;28;20206;-71
2022/06/13 12:21:25;;;;;;;7.00;3.27;;;23.10;44.00;;;;;;21079276;28;20585;-71
2022/06/13 12:31:52;;;;;;;5.73;2.10;;;22.90;43.60;;;;;;21077547;28;20237;-69
2022/06/13 12:42:18;;;;;;;5.87;2.60;;;22.90;43.80;;;;;;21062013;28;20279;-70
2022/06/13 12:52:48;;;;;;;5.97;2.90;;;23.30;42.90;;;;;;21079294;28;20207;-70
2022/06/13 13:03:02;;;;;;;7.20;2.57;;;22.80;44.10;;;;;;21077371;28;20681;-70
2022/06/13 13:13:39;;;;;;;5.83;2.53;;;22.70;46.10;;;;;;21076741;28;20207;-69
2022/06/13 13:23:46;;;;;;;9.13;2.73;;;22.50;48.10;;;;;;21076435;28;20222;-69
2022/06/13 13:34:19;;;;;;;9.53;3.70;;;22.70;49.00;;;;;;21074046;28;20309;-69
2022/06/13 13:44:41;;;;;;;7.73;3.20;;;22.70;49.30;;;;;;21038528;28;20237;-70
2022/06/13 13:54:50;;;;;;;9.43;5.03;;;22.70;49.70;;;;;;21075893;28;20203;-71
2022/06/13 14:05:17;;;;;;;5.77;2.63;;;22.90;49.70;;;;;;21075227;28;20627;-69
2022/06/13 14:15:33;;;;;;;10.67;3.77;;;23.10;49.50;;;;;;21044395;28;20249;-70
2022/06/13 14:25:42;;;;;;;8.43;3.07;;;23.40;49.30;;;;;;21089615;28;20242;-73
2022/06/13 14:35:52;;;;;;;9.37;3.90;;;23.60;49.90;;;;;;21088827;28;20723;-73
2022/06/13 14:46:00;;;;;;;6.50;2.70;;;23.40;50.10;;;;;;21087459;28;20234;-74
2022/06/13 14:56:08;;;;;;;23.00;2.93;;;23.00;49.70;;;;;;21087588;28;20295;-70
2022/06/13 15:06:12;;;;;;;6.50;2.90;;;22.90;49.90;;;;;;21068451;28;20261;-66
2022/06/13 15:16:15;;;;;;;9.70;4.93;;;22.70;50.80;;;;;;21083637;28;20610;-70
2022/06/13 15:26:30;;;;;;;5.00;2.83;;;22.90;51.00;;;;;;21084060;28;20250;-70
2022/06/13 15:36:32;;;;;;;7.97;3.27;;;23.20;50.60;;;;;;21084146;28;20259;-70
2022/06/13 15:46:46;;;;;;;6.70;2.93;;;23.20;50.20;;;;;;21082050;28;20230;-70
2022/06/13 15:57:12;;;;;;;6.77;3.20;;;23.30;50.30;;;;;;21083171;28;20210;-72
2022/06/13 16:07:20;;;;;;;7.20;2.63;;;23.70;48.60;;;;;;21081687;28;20259;-71
2022/06/13 16:17:28;;;;;;;10.23;3.40;;;24.70;48.00;;;;;;21080907;28;20195;-71
2022/06/13 16:27:30;;;;;;;6.87;3.00;;;25.30;46.10;;;;;;21080293;28;20238;-71
2022/06/13 16:37:52;;;;;;;10.03;3.30;;;23.90;46.80;;;;;;21079486;28;20210;-72
2022/06/13 16:47:53;;;;;;;8.43;3.37;;;23.40;47.30;;;;;;21079333;28;20306;-71
2022/06/13 16:57:56;;;;;;;7.87;4.27;;;23.20;48.00;;;;;;21079478;28;20274;-73
2022/06/13 17:08:10;;;;;;;9.67;4.17;;;22.80;48.30;;;;;;21079625;28;20567;-71
2022/06/13 17:18:17;;;;;;;7.53;3.33;;;22.80;48.30;;;;;;21085542;28;20202;-71
2022/06/13 17:38:41;;;;;;;10.67;4.40;;;22.80;46.90;;;;;;21077451;28;20599;-70
2022/06/13 17:48:43;;;;;;;9.30;4.20;;;22.40;47.30;;;;;;21080125;28;20210;-66
2022/06/13 17:58:45;;;;;;;10.03;4.33;;;22.70;47.30;;;;;;21095101;28;20276;-67
2022/06/13 18:08:50;;;;;;;7.53;4.40;;;22.30;47.30;;;;;;21092317;28;20248;-68
2022/06/13 18:18:54;;;;;;;9.83;4.60;;;22.00;48.00;;;;;;21091286;28;20238;-64
2022/06/13 18:28:59;;;;;;;9.33;4.30;;;21.90;48.50;;;;;;21091114;28;20234;-68
2022/06/13 18:39:06;;;;;;;12.13;5.30;;;21.80;48.80;;;;;;21088623;28;20230;-70
2022/06/13 18:49:09;;;;;;;11.83;5.47;;;21.70;49.50;;;;;;21088064;28;20279;-67
2022/06/13 18:59:11;;;;;;;6.67;4.10;;;21.60;50.40;;;;;;21088238;28;20697;-68
2022/06/13 19:09:18;;;;;;;7.90;4.20;;;21.40;50.80;;;;;;21080630;28;20211;-64
2022/06/13 19:19:22;;;;;;;7.83;5.00;;;21.30;51.20;;;;;;21079990;28;20227;-66
2022/06/13 19:29:28;;;;;;;12.13;4.73;;;21.00;51.40;;;;;;21085506;28;20237;-69
2022/06/13 19:39:32;;;;;;;9.67;4.60;;;20.90;51.60;;;;;;21084671;28;20233;-67
2022/06/13 19:49:34;;;;;;;10.03;5.30;;;20.70;52.00;;;;;;21084089;28;20288;-69
2022/06/13 19:59:36;;;;;;;7.37;5.00;;;20.60;52.60;;;;;;21083311;28;20311;-67
2022/06/13 20:09:39;;;;;;;13.30;4.77;;;20.40;53.70;;;;;;21082226;28;20252;-66
2022/06/13 20:20:04;;;;;;;10.30;4.70;;;20.30;54.30;;;;;;20993244;28;20237;-66
2022/06/13 20:30:07;;;;;;;13.87;5.03;;;20.20;54.40;;;;;;20996613;28;20287;-67
2022/06/13 20:40:18;;;;;;;10.60;4.70;;;20.10;54.40;;;;;;20995779;28;20659;-64
2022/06/13 20:50:24;;;;;;;10.30;5.07;;;19.90;55.40;;;;;;20993982;28;20206;-65
2022/06/13 21:00:26;;;;;;;8.47;4.87;;;19.60;56.30;;;;;;20995363;28;20328;-64
2022/06/13 21:10:28;;;;;;;12.73;8.67;;;19.40;57.20;;;;;;21001694;28;20246;-65
2022/06/13 21:20:33;;;;;;;6.57;4.67;;;19.10;57.50;;;;;;21077865;28;20240;-67
2022/06/13 21:30:39;;;;;;;8.10;4.93;;;19.00;57.90;;;;;;21093140;28;20599;-63
2022/06/13 21:40:45;;;;;;;10.43;5.90;;;18.80;58.70;;;;;;21094184;28;20235;-64
2022/06/13 21:50:49;;;;;;;8.83;4.73;;;18.60;59.20;;;;;;21091610;28;20264;-63
2022/06/13 22:00:51;;;;;;;12.50;4.90;;;18.40;59.80;;;;;;21093200;28;20575;-63
2022/06/13 22:10:53;;;;;;;8.80;4.77;;;18.20;60.20;;;;;;21092633;28;20203;-63
2022/06/13 22:20:55;;;;;;;6.93;4.87;;;18.00;61.10;;;;;;21091131;28;20241;-64
2022/06/13 22:30:57;;;;;;;11.53;4.87;;;17.90;61.80;;;;;;21091572;28;20266;-63
2022/06/13 22:40:59;;;;;;;10.33;5.30;;;17.70;62.20;;;;;;21091125;28;20227;-64
2022/06/13 22:51:05;;;;;;;6.87;4.83;;;17.60;62.90;;;;;;21089876;28;20667;-64
2022/06/13 23:01:07;;;;;;;7.67;4.73;;;17.40;63.60;;;;;;21087936;28;20236;-64
2022/06/13 23:11:08;;;;;;;10.63;5.27;;;17.20;64.20;;;;;;21088719;28;20263;-64
2022/06/13 23:21:10;;;;;;;8.63;4.97;;;17.00;64.70;;;;;;21086355;28;20280;-64
2022/06/13 23:31:11;;;;;;;7.03;4.50;;;16.80;65.30;;;;;;21085852;28;20294;-66
2022/06/13 23:41:13;;;;;;;7.63;5.10;;;16.70;65.90;;;;;;21084942;28;20301;-63
2022/06/13 23:51:15;;;;;;;9.80;5.00;;;16.50;66.60;;;;;;21082970;28;20203;-65
